Time;durP1;ratioP1;P1;durP2;ratioP2;P2;SDS_P1;SDS_P2;PMS_P1;PMS_P2;Temp;Humidity;BMP_temperature;BMP_pressure;BME280_temperature;BME280_humidity;BME280_pressure;Samples;Min_cycle;Max_cycle;Signal;HPM_P1;HPM_P2
2022/04/03 00:00:33;;;;;;;9.03;4.17;;;-2.80;93.90;;;;;;5074223;28;20200;-82
2022/04/03 00:03:00;;;;;;;7.97;3.87;;;-2.80;97.70;;;;;;5075116;28;20277;-82
2022/04/03 00:05:28;;;;;;;10.87;4.40;;;-2.90;94.80;;;;;;5074881;28;20196;-81
2022/04/03 00:07:55;;;;;;;7.83;4.07;;;-3.00;94.20;;;;;;5074857;28;20659;-82
2022/04/03 00:10:22;;;;;;;8.93;4.17;;;-3.10;93.80;;;;;;5074865;28;20314;-82
2022/04/03 00:12:50;;;;;;;9.23;4.37;;;-3.10;99.90;;;;;;5071940;28;20590;-82
2022/04/03 00:15:19;;;;;;;8.30;4.27;;;-3.20;99.90;;;;;;5054357;28;20203;-81
2022/04/03 00:17:47;;;;;;;10.97;4.23;;;-3.20;99.90;;;;;;5053840;28;20192;-85
2022/04/03 00:20:16;;;;;;;7.77;3.93;;;-3.20;99.90;;;;;;5054683;28;20673;-82
2022/04/03 00:22:48;;;;;;;9.33;4.17;;;-3.20;99.90;;;;;;5068410;28;20196;-82
2022/04/03 00:25:15;;;;;;;7.73;4.00;;;-3.20;99.90;;;;;;5074697;28;20181;-82
2022/04/03 00:27:42;;;;;;;8.77;4.13;;;-3.20;99.90;;;;;;5074610;28;20195;-82
2022/04/03 00:30:10;;;;;;;7.23;4.03;;;-3.20;99.90;;;;;;5074134;28;20722;-83
2022/04/03 00:32:38;;;;;;;8.53;4.40;;;-3.30;99.90;;;;;;5074208;28;20588;-82
2022/04/03 00:35:06;;;;;;;9.63;4.00;;;-3.30;99.90;;;;;;5074356;28;20274;-82
2022/04/03 00:37:33;;;;;;;8.63;4.47;;;-3.30;99.90;;;;;;5074334;28;20200;-83
2022/04/03 00:40:01;;;;;;;9.53;4.17;;;-3.30;99.90;;;;;;5073936;28;20683;-84
2022/04/03 00:42:28;;;;;;;9.73;4.43;;;-3.30;99.90;;;;;;5074288;28;20192;-84
2022/04/03 00:44:55;;;;;;;11.27;4.87;;;-3.40;99.90;;;;;;5060906;28;20196;-81
2022/04/03 00:47:22;;;;;;;11.03;4.67;;;-3.40;99.90;;;;;;5054131;28;20193;-81
2022/04/03 00:49:51;;;;;;;7.80;4.17;;;-3.40;99.90;;;;;;5054099;28;20199;-82
2022/04/03 00:52:18;;;;;;;9.90;5.10;;;-3.50;99.90;;;;;;5064109;28;20218;-83
2022/04/03 00:54:47;;;;;;;10.83;5.10;;;-3.50;99.90;;;;;;5073706;28;20241;-81
2022/04/03 00:57:14;;;;;;;10.13;4.33;;;-3.50;99.90;;;;;;5073950;28;20194;-82
2022/04/03 00:59:42;;;;;;;11.57;4.90;;;-3.50;99.90;;;;;;5073944;28;20212;-82
2022/04/03 01:02:10;;;;;;;11.70;4.80;;;-3.60;99.90;;;;;;5073460;28;20188;-82
2022/04/03 01:04:38;;;;;;;8.13;4.60;;;-3.60;99.90;;;;;;5073788;28;20203;-83
2022/04/03 01:07:07;;;;;;;8.87;4.43;;;-3.60;99.90;;;;;;5073741;28;20533;-83
2022/04/03 01:09:34;;;;;;;8.90;4.77;;;-3.70;99.90;;;;;;5073680;28;20248;-81
2022/04/03 01:12:01;;;;;;;10.50;4.70;;;-3.70;99.90;;;;;;5072911;28;20188;-81
2022/04/03 01:14:32;;;;;;;9.10;4.80;;;-3.70;99.90;;;;;;5058443;28;20184;-83
2022/04/03 01:16:59;;;;;;;10.50;4.13;;;-3.70;99.90;;;;;;5053780;28;20196;-85
2022/04/03 01:19:26;;;;;;;9.60;4.57;;;-3.70;99.90;;;;;;5053622;28;20212;-82
2022/04/03 01:21:53;;;;;;;7.63;4.10;;;-3.70;99.90;;;;;;5059867;28;20676;-83
2022/04/03 01:24:23;;;;;;;8.07;4.33;;;-3.70;99.90;;;;;;5073100;28;20204;-80
2022/04/03 01:26:52;;;;;;;8.80;4.47;;;-3.70;99.90;;;;;;5073379;28;20204;-82
2022/04/03 01:29:19;;;;;;;7.47;3.40;;;-3.70;99.90;;;;;;5072926;28;20246;-83
2022/04/03 01:31:47;;;;;;;14.23;4.73;;;-3.80;99.90;;;;;;5073336;28;20196;-82
2022/04/03 01:34:15;;;;;;;10.40;5.43;;;-3.80;99.90;;;;;;5073252;28;20230;-82
2022/04/03 01:36:42;;;;;;;10.27;5.17;;;-3.80;99.90;;;;;;5073209;28;20200;-81
2022/04/03 01:39:10;;;;;;;13.37;4.80;;;-3.80;99.90;;;;;;5072815;28;20257;-83
2022/04/03 01:41:37;;;;;;;9.20;4.47;;;-3.90;99.90;;;;;;5073062;28;20543;-81
2022/04/03 01:44:07;;;;;;;8.57;4.50;;;-3.90;99.90;;;;;;5061103;28;20212;-83
2022/04/03 01:46:34;;;;;;;10.00;4.47;;;-3.90;99.90;;;;;;5053063;28;20189;-82
2022/04/03 01:49:02;;;;;;;10.30;4.50;;;-3.90;99.90;;;;;;5053134;28;20231;-81
2022/04/03 01:51:29;;;;;;;8.67;4.23;;;-4.00;99.90;;;;;;5052837;28;20699;-81
2022/04/03 01:53:55;;;;;;;9.43;3.93;;;-4.00;99.90;;;;;;5052904;28;20192;-85
2022/04/03 01:56:22;;;;;;;8.60;4.10;;;-4.00;99.90;;;;;;5052875;28;20192;-81
2022/04/03 01:58:50;;;;;;;6.83;3.63;;;-4.00;99.90;;;;;;5052796;28;20299;-82
2022/04/03 02:01:18;;;;;;;9.70;4.37;;;-4.00;99.90;;;;;;5052479;28;20645;-82
2022/04/03 02:03:46;;;;;;;7.73;4.13;;;-4.10;99.90;;;;;;5052449;28;20246;-82
2022/04/03 02:06:15;;;;;;;6.83;4.20;;;-4.10;99.90;;;;;;5052297;28;20711;-83
2022/04/03 02:08:43;;;;;;;9.40;3.93;;;-4.10;99.90;;;;;;5052779;28;20197;-82
2022/04/03 02:11:10;;;;;;;7.57;4.37;;;-4.20;99.90;;;;;;5052731;28;20228;-82
2022/04/03 02:13:37;;;;;;;8.57;4.37;;;-4.20;99.90;;;;;;5059658;28;20588;-81
2022/04/03 02:16:05;;;;;;;9.37;4.40;;;-4.10;99.90;;;;;;5072256;28;20192;-81
2022/04/03 02:18:33;;;;;;;9.33;4.53;;;-4.10;99.90;;;;;;5072437;28;20270;-83
2022/04/03 02:21:00;;;;;;;10.37;4.37;;;-4.20;99.90;;;;;;5072316;28;20757;-82
2022/04/03 02:23:27;;;;;;;7.47;3.93;;;-4.20;99.90;;;;;;5072006;28;20188;-83
2022/04/03 02:25:54;;;;;;;8.90;4.40;;;-4.10;99.90;;;;;;5072127;28;20247;-81
2022/04/03 02:28:21;;;;;;;8.13;4.33;;;-4.10;99.90;;;;;;5072067;28;20192;-82
2022/04/03 02:30:49;;;;;;;9.47;4.23;;;-4.20;99.90;;;;;;5072124;28;20596;-84
2022/04/03 02:33:16;;;;;;;14.67;4.70;;;-4.10;99.90;;;;;;5071679;28;20195;-82
2022/04/03 02:35:45;;;;;;;9.40;4.67;;;-4.10;99.90;;;;;;5072111;28;20600;-82
2022/04/03 02:38:15;;;;;;;9.70;4.30;;;-4.10;99.90;;;;;;5072013;28;20196;-82
2022/04/03 02:40:43;;;;;;;11.33;4.63;;;-4.20;99.90;;;;;;5072333;28;20203;-83
2022/04/03 02:43:11;;;;;;;9.33;4.73;;;-4.20;99.90;;;;;;5071973;28;20192;-82
2022/04/03 02:45:38;;;;;;;9.87;4.37;;;-4.20;99.90;;;;;;5072326;28;20199;-83
2022/04/03 02:48:07;;;;;;;11.07;4.93;;;-4.20;99.90;;;;;;5072216;28;20191;-82
2022/04/03 02:50:35;;;;;;;11.03;4.70;;;-4.20;99.90;;;;;;5071847;28;20249;-81
2022/04/03 02:53:04;;;;;;;9.27;4.40;;;-4.20;99.90;;;;;;5065900;28;20196;-82
2022/04/03 02:55:31;;;;;;;10.17;3.90;;;-4.20;99.90;;;;;;5052178;28;25150;-83
2022/04/03 02:57:58;;;;;;;9.40;4.27;;;-4.20;99.90;;;;;;5052079;28;20196;-82
2022/04/03 03:00:25;;;;;;;12.57;4.40;;;-4.20;99.90;;;;;;5052999;28;20768;-82
2022/04/03 03:02:53;;;;;;;6.67;3.73;;;-4.30;99.90;;;;;;5052066;28;20199;-81
2022/04/03 03:05:20;;;;;;;7.60;4.50;;;-4.30;99.90;;;;;;5051693;28;20203;-82
2022/04/03 03:07:48;;;;;;;9.23;4.70;;;-4.30;99.90;;;;;;5051752;28;20196;-83
2022/04/03 03:10:19;;;;;;;9.93;4.40;;;-4.30;99.90;;;;;;5052019;28;20228;-82
2022/04/03 03:12:47;;;;;;;9.23;4.80;;;-4.40;99.90;;;;;;5052079;28;20231;-82
2022/04/03 03:15:15;;;;;;;8.33;4.97;;;-4.40;99.90;;;;;;5051970;28;20197;-81
2022/04/03 03:17:43;;;;;;;11.03;4.90;;;-4.40;99.90;;;;;;5051667;28;20197;-82
2022/04/03 03:20:11;;;;;;;8.23;4.67;;;-4.40;99.90;;;;;;5051616;28;20221;-81
2022/04/03 03:22:38;;;;;;;9.63;5.07;;;-4.50;99.90;;;;;;5053967;28;20189;-81
2022/04/03 03:25:07;;;;;;;7.93;4.53;;;-4.50;99.90;;;;;;5072230;28;20253;-85
2022/04/03 03:27:38;;;;;;;10.00;4.63;;;-4.50;99.90;;;;;;5072137;28;20550;-82
2022/04/03 03:30:06;;;;;;;9.10;4.37;;;-4.50;99.90;;;;;;5072364;28;20262;-83
2022/04/03 03:32:33;;;;;;;9.97;4.67;;;-4.50;99.90;;;;;;5055861;28;20192;-83
2022/04/03 03:35:01;;;;;;;9.77;4.73;;;-4.50;99.90;;;;;;5051824;28;20189;-83
2022/04/03 03:37:28;;;;;;;12.93;4.83;;;-4.50;99.90;;;;;;5054774;28;20192;-83
2022/04/03 03:39:55;;;;;;;9.43;4.60;;;-4.60;99.90;;;;;;5055240;28;20732;-84
2022/04/03 03:42:22;;;;;;;12.03;4.57;;;-4.60;99.90;;;;;;5055013;28;20613;-83
2022/04/03 03:44:51;;;;;;;10.00;4.63;;;-4.60;99.90;;;;;;5055370;28;20538;-83
2022/04/03 03:47:18;;;;;;;9.70;4.93;;;-4.60;99.90;;;;;;5054990;28;20201;-83
2022/04/03 03:49:45;;;;;;;7.63;4.37;;;-4.50;99.90;;;;;;5055255;28;20200;-83
2022/04/03 03:52:12;;;;;;;10.87;5.00;;;-4.50;99.90;;;;;;5055716;28;20208;-82
2022/04/03 03:54:39;;;;;;;8.97;4.63;;;-4.50;99.90;;;;;;5074328;28;20691;-84
2022/04/03 03:57:06;;;;;;;7.77;4.13;;;-4.50;99.90;;;;;;5075351;28;20188;-82
2022/04/03 03:59:33;;;;;;;8.87;4.37;;;-4.50;99.90;;;;;;5075195;28;20234;-83
2022/04/03 04:02:04;;;;;;;12.17;5.10;;;-4.50;99.90;;;;;;5075075;28;20192;-84
2022/04/03 04:04:31;;;;;;;8.67;4.30;;;-4.40;99.90;;;;;;5075105;28;20181;-81
2022/04/03 04:06:58;;;;;;;8.80;4.50;;;-4.40;99.90;;;;;;5074933;28;20242;-81
2022/04/03 04:09:25;;;;;;;10.40;4.63;;;-4.30;99.90;;;;;;5074753;28;20580;-82
2022/04/03 04:11:52;;;;;;;11.33;4.90;;;-4.30;99.90;;;;;;5075907;28;20583;-83
2022/04/03 04:14:19;;;;;;;9.90;4.27;;;-4.30;99.90;;;;;;5074851;28;20201;-82
2022/04/03 04:16:46;;;;;;;10.60;5.10;;;-4.30;99.90;;;;;;5074914;28;20199;-83
2022/04/03 04:19:16;;;;;;;10.00;5.00;;;-4.20;99.90;;;;;;5074657;28;20196;-81
2022/04/03 04:21:43;;;;;;;20.63;8.37;;;-4.20;99.90;;;;;;5074711;28;20282;-82
2022/04/03 04:24:11;;;;;;;39.07;12.97;;;-4.10;99.90;;;;;;5073642;28;20599;-82
2022/04/03 04:26:46;;;;;;;42.63;14.27;;;-4.10;99.90;;;;;;5075207;28;20194;-82
2022/04/03 04:29:13;;;;;;;54.33;15.70;;;-4.00;99.90;;;;;;5084075;28;20278;-84
2022/04/03 04:31:40;;;;;;;75.23;20.00;;;-4.00;99.90;;;;;;5074430;28;20188;-85
2022/04/03 04:34:07;;;;;;;96.40;24.57;;;-3.90;99.90;;;;;;5075459;28;20196;-83
2022/04/03 04:36:36;;;;;;;77.17;21.77;;;-3.80;99.90;;;;;;5075919;28;20265;-84
2022/04/03 04:39:07;;;;;;;55.83;17.83;;;-3.70;99.90;;;;;;5058848;28;20234;-83
2022/04/03 04:41:37;;;;;;;66.33;18.60;;;-3.60;1.00;;;;;;5056132;28;20224;-82
2022/04/03 04:44:05;;;;;;;37.70;13.07;;;-3.50;1.00;;;;;;5057199;28;20219;-85
2022/04/03 04:46:38;;;;;;;72.93;19.10;;;-3.30;1.00;;;;;;5056976;28;20222;-84
2022/04/03 04:49:05;;;;;;;39.43;12.10;;;-3.20;1.00;;;;;;5057933;28;20177;-84
2022/04/03 04:51:32;;;;;;;99.57;24.17;;;-3.00;1.00;;;;;;5054556;28;20189;-81
2022/04/03 04:54:07;;;;;;;94.30;25.87;;;-2.80;1.00;;;;;;5070973;28;20575;-84
2022/04/03 04:56:34;;;;;;;50.73;15.53;;;-2.70;1.00;;;;;;5075889;28;20183;-81
2022/04/03 04:59:01;;;;;;;102.07;24.13;;;-2.50;1.00;;;;;;5075682;28;20188;-83
2022/04/03 05:01:28;;;;;;;85.00;24.77;;;-2.40;1.00;;;;;;5074336;28;20218;-82
2022/04/03 05:03:55;;;;;;;74.87;21.87;;;-2.30;1.00;;;;;;5074686;28;20609;-84
2022/04/03 05:06:26;;;;;;;121.20;32.17;;;-2.10;1.00;;;;;;5075793;28;20260;-83
2022/04/03 05:08:53;;;;;;;169.60;34.77;;;-2.00;1.00;;;;;;5075661;28;20230;-84
2022/04/03 05:11:22;;;;;;;48.70;15.00;;;-1.90;1.00;;;;;;5078300;28;20273;-83
2022/04/03 05:13:56;;;;;;;86.60;25.30;;;-1.70;1.00;;;;;;5078424;28;20231;-82
2022/04/03 05:16:24;;;;;;;53.43;16.33;;;-1.60;1.00;;;;;;5075206;28;20239;-82
2022/04/03 05:18:52;;;;;;;21.70;7.63;;;-1.50;1.00;;;;;;5078513;28;20206;-83
2022/04/03 05:21:19;;;;;;;60.53;17.73;;;-1.30;1.00;;;;;;5076951;28;20694;-85
2022/04/03 05:23:46;;;;;;;79.60;22.20;;;-1.20;1.00;;;;;;5062998;28;20192;-83
2022/04/03 05:26:13;;;;;;;79.77;19.63;;;-1.10;1.00;;;;;;5058029;28;20201;-84
2022/04/03 05:28:41;;;;;;;93.60;23.90;;;-1.00;1.00;;;;;;5057038;28;20196;-82
2022/04/03 05:31:08;;;;;;;107.23;27.07;;;-0.90;1.00;;;;;;5054224;28;20615;-84
2022/04/03 05:33:49;;;;;;;118.13;29.63;;;-0.80;1.00;;;;;;5056615;28;20201;-82
2022/04/03 05:36:16;;;;;;;98.07;25.63;;;-0.70;1.00;;;;;;5054885;28;20212;-83
2022/04/03 05:38:43;;;;;;;95.97;25.23;;;-0.60;1.00;;;;;;5055055;28;20239;-82
2022/04/03 05:41:17;;;;;;;67.10;20.27;;;-0.50;1.00;;;;;;5054304;28;20685;-83
2022/04/03 05:43:46;;;;;;;90.73;24.33;;;-0.50;1.00;;;;;;5070208;28;20195;-83
2022/04/03 05:46:13;;;;;;;66.23;18.37;;;-0.30;1.00;;;;;;5075782;28;20188;-84
2022/04/03 05:48:43;;;;;;;83.33;20.83;;;-0.20;1.00;;;;;;5074362;28;20199;-82
2022/04/03 05:51:10;;;;;;;40.67;14.57;;;-0.10;1.00;;;;;;5074016;28;20199;-83
2022/04/03 05:53:37;;;;;;;111.37;27.93;;;0.10;1.00;;;;;;5073478;28;20196;-82
2022/04/03 05:56:05;;;;;;;81.47;21.10;;;0.20;1.00;;;;;;5075433;28;20210;-84
2022/04/03 05:58:32;;;;;;;39.70;10.90;;;0.30;99.90;;;;;;5073656;28;20195;-84
2022/04/03 06:01:00;;;;;;;32.03;10.80;;;0.30;99.90;;;;;;5073702;28;20211;-82
2022/04/03 06:03:27;;;;;;;69.57;19.20;;;0.30;99.90;;;;;;5059663;28;20192;-84
2022/04/03 06:06:00;;;;;;;107.03;27.77;;;0.30;99.90;;;;;;5053432;28;20199;-80
2022/04/03 06:08:27;;;;;;;35.53;12.13;;;0.40;99.90;;;;;;5053374;28;20184;-83
2022/04/03 06:10:54;;;;;;;80.43;22.87;;;0.50;99.90;;;;;;5055516;28;20282;-81
2022/04/03 06:13:25;;;;;;;91.23;22.70;;;0.80;1.00;;;;;;5055771;28;20196;-82
2022/04/03 06:15:52;;;;;;;78.03;22.90;;;1.10;1.00;;;;;;5054671;28;20212;-80
2022/04/03 06:18:23;;;;;;;82.73;24.43;;;1.40;1.00;;;;;;5062248;28;20706;-81
2022/04/03 06:20:50;;;;;;;87.73;24.57;;;1.70;1.00;;;;;;5058861;28;20200;-82
2022/04/03 06:23:19;;;;;;;116.93;29.80;;;2.00;1.00;;;;;;5056318;28;20196;-83
2022/04/03 06:25:53;;;;;;;138.73;33.43;;;2.40;1.00;;;;;;5053230;28;20204;-83
2022/04/03 06:28:29;;;;;;;132.87;34.87;;;2.60;99.90;;;;;;5053798;28;20625;-84
2022/04/03 06:30:57;;;;;;;124.83;31.10;;;2.80;99.90;;;;;;5055076;28;20642;-84
2022/04/03 06:33:25;;;;;;;151.23;37.27;;;2.80;99.90;;;;;;5070760;28;20281;-83
2022/04/03 06:35:56;;;;;;;115.33;27.17;;;2.90;99.90;;;;;;5076558;28;20195;-82
2022/04/03 06:38:23;;;;;;;75.60;20.43;;;3.00;99.90;;;;;;5071687;28;20201;-82
2022/04/03 06:40:52;;;;;;;75.77;16.57;;;3.00;99.90;;;;;;5072854;28;20224;-83
2022/04/03 06:43:20;;;;;;;117.27;30.40;;;3.10;99.90;;;;;;5074229;28;20224;-82
2022/04/03 06:45:48;;;;;;;172.47;41.13;;;3.20;99.90;;;;;;5072070;28;20592;-82
2022/04/03 06:48:15;;;;;;;122.67;31.23;;;3.30;99.90;;;;;;5054714;28;20645;-83
2022/04/03 06:50:44;;;;;;;87.77;24.03;;;3.40;99.90;;;;;;5052412;28;20198;-82
2022/04/03 06:53:11;;;;;;;96.80;25.37;;;3.40;99.90;;;;;;5059211;28;20187;-81
2022/04/03 06:55:38;;;;;;;44.43;14.70;;;3.50;99.90;;;;;;5064272;28;20615;-83
2022/04/03 06:58:05;;;;;;;67.27;21.33;;;3.50;99.90;;;;;;5052966;28;20294;-82
2022/04/03 07:00:32;;;;;;;77.37;23.80;;;3.60;97.50;;;;;;5053528;28;20222;-83
2022/04/03 07:02:59;;;;;;;92.93;30.47;;;3.70;95.30;;;;;;5053513;28;20264;-83
2022/04/03 07:05:26;;;;;;;58.03;21.30;;;3.80;70.50;;;;;;5052328;28;20202;-84
2022/04/03 07:07:55;;;;;;;33.97;12.37;;;3.90;48.30;;;;;;5055071;28;20199;-83
2022/04/03 07:10:22;;;;;;;40.07;16.00;;;4.00;34.10;;;;;;5073213;28;20228;-82
2022/04/03 07:12:49;;;;;;;25.77;12.30;;;4.10;21.40;;;;;;5079004;28;20250;-83
2022/04/03 07:15:16;;;;;;;83.60;31.80;;;4.10;9.10;;;;;;5079069;28;20678;-84
2022/04/03 07:17:44;;;;;;;59.57;22.90;;;4.20;1.00;;;;;;5059404;28;20196;-82
2022/04/03 07:20:14;;;;;;;85.20;37.57;;;4.20;1.00;;;;;;5058843;28;20199;-84
2022/04/03 07:22:41;;;;;;;67.90;26.33;;;4.20;1.00;;;;;;5058719;28;20235;-85
2022/04/03 07:25:10;;;;;;;42.30;18.03;;;4.20;1.00;;;;;;5065817;28;20281;-81
2022/04/03 07:27:38;;;;;;;22.67;10.47;;;4.20;1.00;;;;;;5075728;28;20643;-82
2022/04/03 07:30:10;;;;;;;34.10;14.77;;;4.20;1.00;;;;;;5079239;28;20238;-83
2022/04/03 07:32:38;;;;;;;8.53;5.07;;;4.30;1.00;;;;;;5067604;28;20591;-85
2022/04/03 07:35:07;;;;;;;6.27;3.30;;;4.30;1.00;;;;;;5061889;28;20220;-85
2022/04/03 07:37:36;;;;;;;5.90;3.07;;;4.40;1.00;;;;;;5082456;28;20202;-85
2022/04/03 07:40:06;;;;;;;5.03;3.10;;;4.50;1.00;;;;;;5075547;28;20260;-83
2022/04/03 07:42:35;;;;;;;5.67;3.60;;;4.70;1.00;;;;;;5075561;28;20257;-84
2022/04/03 07:45:04;;;;;;;8.27;4.10;;;4.90;1.00;;;;;;5076645;28;20289;-84
2022/04/03 07:47:32;;;;;;;9.60;5.30;;;5.10;1.00;;;;;;5061772;28;20196;-84
2022/04/03 07:49:59;;;;;;;18.83;9.20;;;5.50;1.00;;;;;;5057549;28;20209;-85
2022/04/03 07:52:26;;;;;;;9.90;4.47;;;6.10;1.00;;;;;;5056194;28;20200;-86
2022/04/03 07:54:53;;;;;;;29.67;12.43;;;6.50;1.00;;;;;;5056523;28;20247;-87
2022/04/03 07:57:24;;;;;;;7.97;4.37;;;6.80;1.00;;;;;;5057240;28;20639;-84
2022/04/03 07:59:52;;;;;;;11.60;5.47;;;7.00;1.00;;;;;;5056304;28;20659;-85
2022/04/03 08:02:20;;;;;;;6.47;3.57;;;7.30;1.00;;;;;;5063090;28;20700;-85
2022/04/03 08:04:47;;;;;;;9.27;4.07;;;7.50;1.00;;;;;;5077365;28;20255;-86
2022/04/03 08:07:14;;;;;;;6.67;2.60;;;7.60;1.00;;;;;;5077073;28;20253;-82
2022/04/03 08:09:41;;;;;;;5.13;3.40;;;7.70;1.00;;;;;;5075002;28;20619;-85
2022/04/03 08:12:10;;;;;;;9.50;3.80;;;7.80;1.00;;;;;;5074474;28;20645;-84
2022/04/03 08:14:37;;;;;;;5.03;2.27;;;7.80;1.00;;;;;;5075740;28;20195;-85
2022/04/03 08:17:18;;;;;;;9.47;3.70;;;7.90;1.00;;;;;;5076835;28;20196;-85
2022/04/03 08:19:45;;;;;;;6.17;2.90;;;8.00;1.00;;;;;;5078254;28;20272;-85
2022/04/03 08:22:12;;;;;;;9.17;5.03;;;8.20;1.00;;;;;;5077172;28;20219;-82
2022/04/03 08:24:39;;;;;;;7.87;3.47;;;8.40;1.00;;;;;;5075936;28;20228;-82
2022/04/03 08:27:07;;;;;;;6.63;3.00;;;8.50;1.00;;;;;;5078126;28;20205;-83
2022/04/03 08:29:34;;;;;;;4.20;3.10;;;8.60;1.00;;;;;;5080223;28;20200;-86
2022/04/03 08:32:01;;;;;;;4.00;2.67;;;8.60;1.00;;;;;;5077064;28;20208;-83
2022/04/03 08:34:30;;;;;;;8.27;3.20;;;8.70;1.00;;;;;;5075869;28;20224;-82
2022/04/03 08:36:57;;;;;;;3.70;2.23;;;8.70;1.00;;;;;;5076702;28;20196;-84
2022/04/03 08:39:25;;;;;;;8.43;3.60;;;8.70;1.00;;;;;;5075936;28;20228;-85
2022/04/03 08:41:53;;;;;;;4.73;2.10;;;8.70;1.00;;;;;;5067543;28;20214;-85
2022/04/03 08:44:20;;;;;;;3.50;2.20;;;8.60;1.00;;;;;;5069941;28;20208;-87
2022/04/03 08:46:48;;;;;;;4.20;2.43;;;8.50;1.00;;;;;;5074680;28;20549;-86
2022/04/03 08:49:17;;;;;;;7.17;3.17;;;8.50;1.00;;;;;;5076191;28;20695;-83
2022/04/03 08:51:46;;;;;;;8.43;3.97;;;8.50;1.00;;;;;;5074960;28;20654;-86
2022/04/03 08:54:16;;;;;;;7.17;3.50;;;8.50;1.00;;;;;;5074824;28;20192;-82
2022/04/03 08:56:43;;;;;;;12.60;5.93;;;8.60;1.00;;;;;;5074586;28;20568;-83
2022/04/03 08:59:10;;;;;;;15.67;6.90;;;8.70;1.00;;;;;;5074124;28;20199;-81
2022/04/03 09:01:47;;;;;;;10.23;4.00;;;8.80;1.00;;;;;;5073126;28;20226;-83
2022/04/03 09:04:14;;;;;;;13.13;5.63;;;8.90;1.00;;;;;;5074684;28;20180;-82
2022/04/03 09:06:56;;;;;;;8.70;5.00;;;9.00;1.00;;;;;;5068415;28;20186;-81
2022/04/03 09:09:24;;;;;;;4.17;2.40;;;8.90;1.00;;;;;;5054032;28;20314;-82
2022/04/03 09:12:06;;;;;;;4.23;2.20;;;8.80;1.00;;;;;;5068804;28;20195;-85
2022/04/03 09:14:34;;;;;;;12.50;7.47;;;8.80;1.00;;;;;;5060159;28;20199;-80
2022/04/03 09:17:01;;;;;;;8.60;6.03;;;8.70;1.00;;;;;;5056819;28;20208;-83
2022/04/03 09:19:33;;;;;;;10.20;8.37;;;8.80;1.00;;;;;;5071096;28;20582;-81
2022/04/03 09:22:02;;;;;;;6.33;3.53;;;8.70;1.00;;;;;;5071304;28;20204;-81
2022/04/03 09:24:34;;;;;;;5.90;3.53;;;8.60;1.00;;;;;;5074895;28;20279;-82
2022/04/03 09:27:03;;;;;;;4.37;2.10;;;8.60;1.00;;;;;;5075042;28;20699;-82
2022/04/03 09:29:31;;;;;;;10.80;5.53;;;8.60;1.00;;;;;;5074753;28;20194;-83
2022/04/03 09:32:00;;;;;;;7.23;2.30;;;8.60;1.00;;;;;;5075067;28;20192;-82
2022/04/03 09:34:29;;;;;;;13.77;5.53;;;8.60;1.00;;;;;;5073541;28;20196;-81
2022/04/03 09:36:57;;;;;;;9.27;3.33;;;8.70;1.00;;;;;;5076031;28;20238;-82
2022/04/03 09:39:27;;;;;;;3.27;1.30;;;8.80;1.00;;;;;;5064777;28;20229;-82
2022/04/03 09:42:00;;;;;;;32.90;10.60;;;9.30;1.00;;;;;;5066918;28;20209;-80
2022/04/03 09:44:32;;;;;;;14.67;5.03;;;9.70;1.00;;;;;;5073648;28;20226;-80
2022/04/03 09:47:21;;;;;;;21.37;7.40;;;9.90;1.00;;;;;;5074302;28;20252;-81
2022/04/03 09:49:54;;;;;;;66.20;17.73;;;9.90;1.00;;;;;;5052704;28;20197;-84
2022/04/03 09:52:41;;;;;;;80.97;23.37;;;9.70;1.00;;;;;;5056253;28;20202;-83
2022/04/03 09:55:28;;;;;;;90.77;24.17;;;9.50;1.00;;;;;;5050996;28;20636;-81
2022/04/03 09:58:04;;;;;;;77.23;22.73;;;9.20;1.00;;;;;;5050749;28;20613;-81
2022/04/03 10:00:33;;;;;;;61.27;17.63;;;8.90;1.00;;;;;;5051294;28;20218;-80
2022/04/03 10:03:02;;;;;;;76.03;24.40;;;8.70;1.00;;;;;;5056191;28;20744;-82
2022/04/03 10:05:31;;;;;;;28.93;9.57;;;8.40;1.00;;;;;;5060615;28;20251;-80
2022/04/03 10:08:00;;;;;;;58.93;18.73;;;8.30;1.00;;;;;;5049931;28;20520;-82
2022/04/03 10:10:30;;;;;;;20.60;7.90;;;8.40;1.00;;;;;;5052104;28;20221;-79
2022/04/03 10:12:59;;;;;;;45.40;13.17;;;8.70;1.00;;;;;;5050935;28;20245;-84
2022/04/03 10:15:31;;;;;;;26.07;7.07;;;9.10;1.00;;;;;;5055439;28;20211;-82
2022/04/03 10:17:58;;;;;;;66.73;20.23;;;9.50;1.00;;;;;;5052141;28;20193;-83
2022/04/03 10:20:28;;;;;;;100.80;26.97;;;10.00;1.00;;;;;;5055804;28;20237;-84
2022/04/03 10:22:59;;;;;;;48.60;16.50;;;10.40;1.00;;;;;;5052736;28;20702;-82
2022/04/03 10:25:30;;;;;;;39.57;14.70;;;10.80;1.00;;;;;;5051642;28;20641;-81
2022/04/03 10:28:02;;;;;;;19.53;8.93;;;11.10;1.00;;;;;;5055090;28;20202;-87
2022/04/03 10:30:37;;;;;;;20.83;8.43;;;11.10;1.00;;;;;;5054364;28;20287;-82
2022/04/03 10:33:05;;;;;;;11.40;4.77;;;11.20;1.00;;;;;;5056033;28;20190;-83
2022/04/03 10:35:32;;;;;;;9.33;4.57;;;11.40;1.00;;;;;;5055950;28;20192;-83
2022/04/03 10:38:02;;;;;;;5.93;3.43;;;11.70;1.00;;;;;;5072467;28;20197;-82
2022/04/03 10:40:33;;;;;;;21.57;10.63;;;12.00;1.00;;;;;;5059177;28;20631;-81
2022/04/03 10:43:06;;;;;;;7.77;4.20;;;11.80;1.00;;;;;;5052546;28;20213;-83
2022/04/03 10:45:37;;;;;;;9.10;6.03;;;11.40;1.00;;;;;;5055646;28;20280;-82
2022/04/03 10:48:31;;;;;;;6.50;3.93;;;10.90;1.00;;;;;;5063471;28;20772;-81
2022/04/03 10:51:04;;;;;;;14.90;8.40;;;10.30;1.00;;;;;;5062680;28;20188;-84
2022/04/03 10:53:33;;;;;;;6.33;4.10;;;9.70;1.00;;;;;;5058300;28;20185;-84
2022/04/03 10:56:07;;;;;;;14.40;8.33;;;9.30;1.00;;;;;;5059576;28;20252;-83
2022/04/03 10:58:48;;;;;;;10.63;7.37;;;9.10;1.00;;;;;;5059238;28;20187;-82
2022/04/03 11:01:30;;;;;;;11.00;6.23;;;9.30;1.00;;;;;;5058774;28;20195;-83
2022/04/03 11:04:02;;;;;;;19.60;11.43;;;9.50;1.00;;;;;;5057340;28;20275;-82
2022/04/03 11:06:35;;;;;;;10.90;6.57;;;9.70;1.00;;;;;;5058865;28;20193;-82
2022/04/03 11:09:26;;;;;;;4.07;2.47;;;9.90;1.00;;;;;;5059780;28;20189;-82
2022/04/03 11:12:02;;;;;;;8.37;5.07;;;10.00;1.00;;;;;;5056251;28;20649;-82
2022/04/03 11:14:52;;;;;;;8.43;5.50;;;10.10;1.00;;;;;;5063475;28;20186;-81
2022/04/03 11:17:41;;;;;;;5.47;3.30;;;10.20;1.00;;;;;;5060228;28;20185;-85
2022/04/03 11:20:28;;;;;;;4.33;3.10;;;10.10;1.00;;;;;;5062471;28;20187;-84
2022/04/03 11:22:56;;;;;;;4.20;2.60;;;10.20;1.00;;;;;;5065188;28;20201;-82
2022/04/03 11:25:24;;;;;;;3.80;3.20;;;10.20;1.00;;;;;;5064005;28;20204;-86
2022/04/03 11:27:53;;;;;;;3.27;1.80;;;10.40;1.00;;;;;;5059499;28;20201;-83
2022/04/03 11:30:21;;;;;;;3.07;1.83;;;10.60;1.00;;;;;;5062901;28;20230;-83
2022/04/03 11:32:48;;;;;;;2.40;1.50;;;10.80;1.00;;;;;;5059367;28;20745;-82
2022/04/03 11:35:15;;;;;;;6.43;5.07;;;11.00;1.00;;;;;;5063929;28;20199;-83
2022/04/03 11:37:44;;;;;;;5.80;4.30;;;11.20;1.00;;;;;;5062181;28;20227;-83
2022/04/03 11:40:13;;;;;;;5.30;3.47;;;11.50;1.00;;;;;;5063034;28;20202;-83
2022/04/03 11:42:40;;;;;;;4.73;2.97;;;11.50;1.00;;;;;;5061832;28;20701;-81
2022/04/03 11:45:12;;;;;;;3.27;2.87;;;11.50;1.00;;;;;;5068268;28;20190;-83
2022/04/03 11:47:39;;;;;;;21.07;6.83;;;11.70;1.00;;;;;;5058909;28;20191;-81
2022/04/03 11:50:09;;;;;;;6.67;2.93;;;11.90;1.00;;;;;;5057908;28;20706;-81
2022/04/03 11:52:38;;;;;;;11.57;4.00;;;11.90;1.00;;;;;;5058134;28;20239;-82
2022/04/03 11:55:10;;;;;;;5.10;2.07;;;11.70;1.00;;;;;;5062267;28;20190;-82
2022/04/03 11:57:37;;;;;;;9.73;3.73;;;11.40;1.00;;;;;;5055878;28;20268;-81
2022/04/03 12:00:06;;;;;;;4.63;2.30;;;11.20;1.00;;;;;;5056277;28;20196;-83
2022/04/03 12:02:34;;;;;;;58.77;17.03;;;11.20;1.00;;;;;;5061242;28;20266;-81
2022/04/03 12:05:02;;;;;;;58.50;15.60;;;11.30;1.00;;;;;;5077490;28;20201;-86
2022/04/03 12:07:29;;;;;;;42.47;11.30;;;11.30;1.00;;;;;;5076048;28;20193;-82
2022/04/03 12:09:56;;;;;;;75.70;17.90;;;11.40;1.00;;;;;;5077259;28;20220;-83
2022/04/03 12:12:25;;;;;;;39.37;10.00;;;11.50;1.00;;;;;;5075764;28;20204;-82
2022/04/03 12:14:52;;;;;;;69.93;21.67;;;11.70;1.00;;;;;;5076168;28;20289;-84
2022/04/03 12:17:20;;;;;;;31.67;12.70;;;11.80;1.00;;;;;;5077317;28;20714;-85
2022/04/03 12:19:51;;;;;;;47.83;17.80;;;11.90;1.00;;;;;;5078154;28;20219;-83
2022/04/03 12:22:20;;;;;;;49.20;17.20;;;12.00;1.00;;;;;;5080093;28;20277;-82
2022/04/03 12:24:50;;;;;;;12.00;4.80;;;12.20;1.00;;;;;;5078523;28;20197;-82
2022/04/03 12:27:22;;;;;;;12.67;4.63;;;12.30;1.00;;;;;;5082076;28;20189;-81
2022/04/03 12:29:50;;;;;;;34.27;13.57;;;12.40;1.00;;;;;;5081580;28;20186;-81
2022/04/03 12:32:35;;;;;;;14.20;4.57;;;12.40;1.00;;;;;;5069305;28;20227;-85
2022/04/03 12:35:05;;;;;;;50.60;17.37;;;12.30;1.00;;;;;;5060563;28;20721;-83
2022/04/03 12:37:35;;;;;;;2.50;1.63;;;12.30;1.00;;;;;;5061025;28;20222;-82
2022/04/03 12:40:08;;;;;;;22.93;8.43;;;12.20;1.00;;;;;;5058074;28;20584;-81
2022/04/03 12:42:37;;;;;;;8.43;3.20;;;12.00;1.00;;;;;;5056934;28;20667;-81
2022/04/03 12:45:06;;;;;;;24.73;8.93;;;12.00;1.00;;;;;;5059720;28;20656;-81
2022/04/03 12:47:38;;;;;;;13.93;5.43;;;12.00;1.00;;;;;;5055193;28;20306;-82
2022/04/03 12:50:18;;;;;;;27.67;11.13;;;12.10;1.00;;;;;;5054324;28;20245;-81
2022/04/03 12:52:51;;;;;;;21.27;8.37;;;12.10;1.00;;;;;;5055215;28;20640;-81
2022/04/03 12:55:44;;;;;;;3.67;2.00;;;12.00;1.00;;;;;;5056337;28;20206;-80